Time;durP1;ratioP1;P1;durP2;ratioP2;P2;SDS_P1;SDS_P2;PMS_P1;PMS_P2;Temp;Humidity;BMP_temperature;BMP_pressure;BME280_temperature;BME280_humidity;BME280_pressure;Samples;Min_cycle;Max_cycle;Signal;HPM_P1;HPM_P2
2022/09/20 00:00:14;;;;;;;1.30;0.50;;;;;;;12.35;83.37;102331.09;5057307;28;20032;-89
2022/09/20 00:02:39;;;;;;;1.10;0.55;;;;;;;12.35;83.43;102322.34;5060362;28;20221;-90
2022/09/20 00:05:07;;;;;;;2.38;0.45;;;;;;;12.34;83.12;102326.75;5044128;28;20055;-89
2022/09/20 00:07:32;;;;;;;1.17;0.50;;;;;;;12.35;83.03;102327.59;5044355;28;20029;-89
2022/09/20 00:09:58;;;;;;;0.73;0.60;;;;;;;12.36;83.29;102329.31;5060723;28;20054;-89
2022/09/20 00:12:23;;;;;;;0.60;0.43;;;;;;;12.33;83.17;102321.50;5044417;28;20048;-89
2022/09/20 00:14:49;;;;;;;1.02;0.55;;;;;;;12.34;83.21;102324.09;5043793;28;20043;-89
2022/09/20 00:17:14;;;;;;;1.55;0.63;;;;;;;12.34;83.28;102321.47;5060983;28;20043;-89
2022/09/20 00:19:40;;;;;;;1.58;0.50;;;;;;;12.34;83.07;102321.47;5040753;28;20060;-89
2022/09/20 00:22:05;;;;;;;1.48;0.80;;;;;;;12.34;82.93;102321.47;5049704;28;20044;-89
2022/09/20 00:24:31;;;;;;;0.68;0.57;;;;;;;12.34;83.45;102321.47;5043917;28;20035;-89
2022/09/20 00:26:56;;;;;;;2.80;0.98;;;;;;;12.33;82.99;102325.00;5060615;28;20025;-89
2022/09/20 00:29:22;;;;;;;0.43;0.32;;;;;;;12.34;83.30;102325.88;5060285;28;20044;-89
2022/09/20 00:31:47;;;;;;;0.70;0.68;;;;;;;12.33;83.35;102325.00;5044143;28;20040;-89
2022/09/20 00:36:57;;;;;;;1.60;0.95;;;;;;;12.32;83.38;102335.56;5062984;28;20357;-89
2022/09/20 00:39:22;;;;;;;1.50;0.70;;;;;;;12.31;83.30;102342.56;5043252;28;20107;-89
2022/09/20 00:41:47;;;;;;;2.92;1.08;;;;;;;12.31;83.20;102349.59;5043791;28;20033;-90
2022/09/20 00:44:40;;;;;;;2.30;1.00;;;;;;;12.29;83.64;102350.47;5060320;28;20032;-89
2022/09/20 00:47:13;;;;;;;1.77;0.90;;;;;;;12.28;83.85;102342.66;5060018;28;20024;-89
2022/09/20 00:49:38;;;;;;;1.50;0.90;;;;;;;12.28;83.90;102347.91;5064292;28;20028;-89
2022/09/20 00:52:04;;;;;;;1.70;1.08;;;;;;;12.28;83.83;102347.91;5057898;28;20029;-89
2022/09/20 00:54:30;;;;;;;1.50;1.08;;;;;;;12.28;84.09;102346.13;5050693;28;20327;-90
2022/09/20 00:56:56;;;;;;;1.20;1.10;;;;;;;12.27;84.25;102339.16;5076476;28;20024;-89
2022/09/20 00:59:25;;;;;;;1.60;1.50;;;;;;;12.28;84.37;102338.25;5043316;28;20115;-89
2022/09/20 01:05:06;;;;;;;1.65;1.08;;;;;;;12.29;84.87;102334.72;5076507;28;20029;-89
2022/09/20 01:07:33;;;;;;;0.70;0.70;;;;;;;12.27;84.76;102325.16;5061548;28;20146;-89
2022/09/20 01:09:58;;;;;;;1.42;0.90;;;;;;;12.29;84.29;102331.22;5059530;28;20383;-90
2022/09/20 01:12:29;;;;;;;1.02;0.90;;;;;;;12.28;84.16;102326.91;5042290;28;20373;-89
2022/09/20 01:14:55;;;;;;;1.52;1.08;;;;;;;12.27;84.23;102325.16;5077594;28;20046;-89
2022/09/20 01:17:24;;;;;;;2.38;1.95;;;;;;;12.27;84.10;102327.78;5026480;28;20024;-90
2022/09/20 01:20:03;;;;;;;1.25;0.95;;;;;;;12.27;84.23;102320.75;5059185;28;20051;-89
2022/09/20 01:22:42;;;;;;;1.13;0.90;;;;;;;12.26;83.87;102316.41;5076188;28;20313;-89
2022/09/20 01:25:49;;;;;;;1.38;0.90;;;;;;;12.26;84.09;102324.31;5059010;28;20032;-89
2022/09/20 01:28:15;;;;;;;0.90;0.75;;;;;;;12.26;84.01;102328.66;5053289;28;20127;-89
2022/09/20 01:30:52;;;;;;;1.52;1.10;;;;;;;12.25;83.97;102316.44;5039572;28;20213;-89
2022/09/20 01:33:23;;;;;;;0.90;0.73;;;;;;;12.24;83.68;102325.22;5057290;28;20427;-89
2022/09/20 01:35:52;;;;;;;2.28;0.73;;;;;;;12.22;83.31;102317.38;5056530;28;20031;-89
2022/09/20 01:38:26;;;;;;;1.63;1.00;;;;;;;12.22;83.34;102321.78;5047642;28;20322;-89
2022/09/20 01:41:05;;;;;;;1.90;0.98;;;;;;;12.21;83.71;102335.81;5076994;28;20101;-89
2022/09/20 01:43:41;;;;;;;0.80;0.65;;;;;;;12.21;83.57;102336.69;5077158;28;20062;-89
2022/09/20 01:46:23;;;;;;;1.60;0.95;;;;;;;12.21;83.26;102348.94;5077076;28;20060;-89
2022/09/20 01:48:53;;;;;;;1.45;1.00;;;;;;;12.20;83.56;102345.44;5077438;28;20275;-89
2022/09/20 01:51:46;;;;;;;1.63;1.13;;;;;;;12.19;83.49;102346.34;5076903;28;20054;-89
2022/09/20 01:54:30;;;;;;;1.77;1.05;;;;;;;12.19;83.49;102340.25;5077216;28;20330;-89
2022/09/20 01:57:13;;;;;;;2.30;0.80;;;;;;;12.19;83.94;102333.22;5056600;28;20028;-89
2022/09/20 01:59:56;;;;;;;1.08;0.98;;;;;;;12.19;83.82;102325.34;5058035;28;20083;-89
2022/09/20 02:02:46;;;;;;;2.08;0.82;;;;;;;12.18;83.81;102330.63;5058918;28;20055;-89
2022/09/20 02:05:25;;;;;;;1.75;0.90;;;;;;;12.17;83.41;102324.53;5076304;28;20020;-89
2022/09/20 02:08:28;;;;;;;2.25;1.02;;;;;;;12.15;83.57;102321.06;5058763;28;20043;-89
2022/09/20 02:11:09;;;;;;;0.68;0.68;;;;;;;12.14;83.61;102318.47;5065377;28;20036;-89
2022/09/20 02:13:38;;;;;;;1.10;0.73;;;;;;;12.16;83.26;102324.56;5058767;28;20024;-89
2022/09/20 02:16:21;;;;;;;0.98;0.90;;;;;;;12.14;83.21;102310.59;5076326;28;20031;-90
2022/09/20 02:19:02;;;;;;;1.17;0.68;;;;;;;12.12;82.82;102320.28;5068602;28;20037;-89
2022/09/20 02:21:41;;;;;;;1.50;0.95;;;;;;;12.09;83.01;102311.56;5067909;28;20040;-89
2022/09/20 02:24:34;;;;;;;0.75;0.70;;;;;;;12.08;82.95;102320.34;5075479;28;20269;-89
2022/09/20 02:26:59;;;;;;;1.00;0.80;;;;;;;12.08;82.92;102314.25;5058070;28;20043;-89
2022/09/20 02:29:43;;;;;;;0.50;0.50;;;;;;;12.06;82.62;102316.91;5058491;28;20016;-89
2022/09/20 02:32:20;;;;;;;0.70;0.70;;;;;;;12.05;82.72;102314.31;5057896;28;20043;-89
2022/09/20 02:35:12;;;;;;;0.60;0.60;;;;;;;12.03;82.85;102316.09;5069181;28;20029;-89
2022/09/20 02:37:52;;;;;;;1.30;0.75;;;;;;;12.02;82.43;102315.22;5056452;28;20068;-90
2022/09/20 02:40:20;;;;;;;0.70;0.63;;;;;;;12.01;82.50;102310.88;5072607;28;20126;-89
2022/09/20 02:42:54;;;;;;;0.68;0.55;;;;;;;12.00;82.81;102311.75;5058217;28;20028;-89
2022/09/20 02:45:24;;;;;;;1.25;0.85;;;;;;;12.01;82.81;102312.66;5075680;28;20256;-89
2022/09/20 02:47:52;;;;;;;1.00;0.65;;;;;;;11.99;82.54;102317.94;5058521;28;20027;-89
2022/09/20 02:50:21;;;;;;;0.68;0.57;;;;;;;11.99;82.69;102315.31;5058318;28;20024;-89
2022/09/20 02:53:07;;;;;;;0.60;0.52;;;;;;;11.98;82.75;102316.19;5056722;28;20052;-89
2022/09/20 02:55:35;;;;;;;0.52;0.52;;;;;;;11.97;82.86;102316.22;5057006;28;20166;-89
2022/09/20 02:58:16;;;;;;;1.00;0.70;;;;;;;11.96;82.83;102312.75;5076171;28;20093;-90
2022/09/20 03:01:00;;;;;;;1.00;0.68;;;;;;;11.96;83.33;102312.75;5074549;28;20205;-89
2022/09/20 03:03:33;;;;;;;0.60;0.60;;;;;;;11.96;83.30;102306.63;5057604;28;20028;-89
2022/09/20 03:06:10;;;;;;;0.98;0.70;;;;;;;11.96;83.08;102320.63;5073979;28;20032;-89
2022/09/20 03:09:23;;;;;;;0.63;0.60;;;;;;;11.94;83.28;102317.16;5057881;28;20032;-89
2022/09/20 03:12:04;;;;;;;0.55;0.50;;;;;;;11.94;82.98;102311.91;5053446;28;20365;-88
2022/09/20 03:14:39;;;;;;;0.80;0.80;;;;;;;11.93;83.01;102309.31;5057906;28;20035;-88
2022/09/20 03:17:08;;;;;;;1.58;0.90;;;;;;;11.93;83.09;102314.56;5040943;28;20251;-89
2022/09/20 03:19:36;;;;;;;;;;;;;;;11.92;82.99;102318.13;5076013;28;20113;-89
2022/09/20 03:22:11;;;;;;;1.58;0.80;;;;;;;11.92;83.13;102312.88;5057631;28;19916;-88
2022/09/20 03:24:58;;;;;;;0.88;0.82;;;;;;;11.89;82.77;102319.84;5064552;28;20331;-89
2022/09/20 03:27:49;;;;;;;0.70;0.70;;;;;;;11.88;83.05;102312.03;5050237;28;20120;-88
2022/09/20 03:30:27;;;;;;;1.70;1.00;;;;;;;11.88;83.06;102309.41;5075643;28;20040;-89
2022/09/20 03:33:14;;;;;;;0.93;0.75;;;;;;;11.87;82.77;102310.28;5062055;28;20119;-88
2022/09/20 03:36:24;;;;;;;1.98;1.17;;;;;;;11.86;83.16;102311.19;5059099;28;20334;-89
2022/09/20 03:38:49;;;;;;;1.27;0.70;;;;;;;11.86;83.39;102314.69;4977350;28;20336;-89
2022/09/20 03:41:43;;;;;;;0.82;0.70;;;;;;;11.86;83.56;102312.06;4947158;28;20034;-89
2022/09/20 03:44:41;;;;;;;0.65;0.65;;;;;;;11.86;83.65;102312.06;5023290;28;20071;-89
2022/09/20 03:47:20;;;;;;;;;;;;;;;11.85;83.84;102315.56;5070488;28;20111;-89
2022/09/20 03:50:05;;;;;;;0.68;0.60;;;;;;;11.85;84.02;102315.56;5041793;28;19912;-89
2022/09/20 03:52:59;;;;;;;2.05;0.80;;;;;;;11.85;84.06;102318.19;5051155;28;20247;-89
2022/09/20 03:55:41;;;;;;;1.10;1.10;;;;;;;11.86;84.05;102308.56;5079293;28;20020;-88
2022/09/20 03:58:48;;;;;;;1.70;0.52;;;;;;;11.86;84.29;102314.69;5078434;28;20048;-89
2022/09/20 04:01:32;;;;;;;0.70;0.70;;;;;;;11.85;84.24;102323.44;5012146;28;20360;-89
2022/09/20 04:04:28;;;;;;;0.80;0.80;;;;;;;11.85;83.96;102333.09;5058039;28;20028;-89
2022/09/20 04:07:12;;;;;;;1.10;1.00;;;;;;;11.84;83.92;102336.59;5043650;28;20115;-89
2022/09/20 04:10:03;;;;;;;1.45;1.00;;;;;;;11.85;83.93;102341.81;5077170;28;20062;-89
2022/09/20 04:12:57;;;;;;;0.60;0.60;;;;;;;11.84;84.23;102345.38;5060741;28;20035;-89
2022/09/20 04:15:55;;;;;;;0.60;0.60;;;;;;;11.85;83.91;102354.09;5060837;28;20029;-89
2022/09/20 04:18:50;;;;;;;1.52;0.70;;;;;;;11.85;83.78;102346.22;5077448;28;20032;-89
2022/09/20 04:21:39;;;;;;;1.15;1.00;;;;;;;11.85;83.95;102349.69;5031132;28;20099;-89
2022/09/20 04:24:16;;;;;;;0.98;0.90;;;;;;;11.86;84.02;102345.31;5048213;28;20096;-89
2022/09/20 04:26:50;;;;;;;4.13;1.00;;;;;;;11.85;84.34;102346.22;5057329;28;20051;-89
2022/09/20 04:29:28;;;;;;;1.52;0.90;;;;;;;11.86;84.22;102353.19;5058661;28;20024;-89
2022/09/20 04:32:12;;;;;;;1.02;0.93;;;;;;;11.86;84.71;102343.56;5040154;28;20402;-89
2022/09/20 04:37:32;;;;;;;1.55;1.10;;;;;;;11.86;84.31;102355.81;5058272;28;20362;-89
2022/09/20 04:40:04;;;;;;;1.73;1.17;;;;;;;11.87;84.34;102344.41;5040276;28;20033;-89
2022/09/20 04:42:58;;;;;;;2.88;1.10;;;;;;;11.87;84.16;102353.16;5040041;28;20045;-89
2022/09/20 04:45:30;;;;;;;2.13;1.00;;;;;;;11.87;84.53;102347.06;5058707;28;20212;-89
2022/09/20 04:48:20;;;;;;;0.90;0.90;;;;;;;11.87;84.65;102347.91;5039122;28;20400;-89
2022/09/20 04:51:06;;;;;;;1.65;1.00;;;;;;;11.88;84.89;102346.16;5040468;28;20374;-89
2022/09/20 04:54:03;;;;;;;0.80;0.70;;;;;;;11.89;85.30;102350.50;5040202;28;20236;-89
2022/09/20 04:56:58;;;;;;;1.77;0.63;;;;;;;11.89;85.11;102347.88;5057762;28;20104;-89
2022/09/20 04:59:45;;;;;;;1.27;0.73;;;;;;;11.89;85.32;102355.75;5039026;28;20210;-89
2022/09/20 05:02:40;;;;;;;1.77;1.27;;;;;;;11.89;85.71;102353.97;5026298;28;20352;-89
2022/09/20 05:05:18;;;;;;;4.78;0.85;;;;;;;11.90;85.86;102349.66;5039870;28;20356;-89
2022/09/20 05:08:22;;;;;;;2.63;0.80;;;;;;;11.90;86.03;102350.50;5057115;28;20075;-89
2022/09/20 05:11:10;;;;;;;0.70;0.60;;;;;;;11.92;86.18;102350.47;5021382;28;20292;-89
2022/09/20 05:13:50;;;;;;;0.82;0.32;;;;;;;11.91;86.54;102351.34;5034938;28;20249;-89
2022/09/20 05:16:32;;;;;;;0.65;0.40;;;;;;;11.92;86.15;102350.47;5034181;28;20037;-89
2022/09/20 05:19:31;;;;;;;0.60;0.50;;;;;;;11.93;86.56;102353.94;5017422;28;20037;-89
2022/09/20 05:22:31;;;;;;;0.50;0.40;;;;;;;11.94;86.70;102353.94;5017554;28;20187;-89
2022/09/20 05:25:24;;;;;;;1.45;0.75;;;;;;;11.94;86.71;102348.69;5038414;28;20129;-89
2022/09/20 05:28:10;;;;;;;0.73;0.40;;;;;;;11.95;86.98;102352.16;5042519;28;20063;-89
2022/09/20 05:31:13;;;;;;;0.40;0.35;;;;;;;11.94;86.85;102346.06;5031025;28;20040;-89
2022/09/20 05:34:05;;;;;;;0.98;0.30;;;;;;;11.95;86.91;102358.28;5036107;28;20042;-89
2022/09/20 05:37:09;;;;;;;0.50;0.40;;;;;;;11.96;87.38;102351.28;5036890;28;20041;-89
2022/09/20 05:40:03;;;;;;;0.70;0.65;;;;;;;11.95;87.31;102354.78;5032938;28;20344;-89
2022/09/20 05:43:10;;;;;;;1.42;0.60;;;;;;;11.97;86.99;102350.34;5034688;28;20044;-89
2022/09/20 05:46:03;;;;;;;1.67;0.38;;;;;;;11.97;87.45;102346.00;5036371;28;20072;-89
2022/09/20 05:49:07;;;;;;;0.70;0.55;;;;;;;11.97;87.73;102353.88;5042163;28;20036;-89
2022/09/20 05:52:12;;;;;;;0.60;0.50;;;;;;;11.97;87.63;102345.09;5050035;28;20251;-89
2022/09/20 05:54:58;;;;;;;2.22;0.50;;;;;;;11.97;87.64;102353.88;5044365;28;20513;-89
2022/09/20 05:58:05;;;;;;;1.98;0.75;;;;;;;11.98;87.78;102357.34;5049861;28;20037;-89
2022/09/20 06:00:58;;;;;;;2.88;0.60;;;;;;;11.99;87.62;102359.94;5050462;28;20056;-89
2022/09/20 06:03:53;;;;;;;1.17;0.80;;;;;;;11.98;88.10;102354.72;5051799;28;20378;-89
2022/09/20 06:06:40;;;;;;;2.40;0.75;;;;;;;12.00;88.08;102366.06;5052053;28;20297;-89
2022/09/20 06:09:45;;;;;;;2.95;0.95;;;;;;;11.99;87.93;102357.31;5052771;28;20044;-89
2022/09/20 06:13:01;;;;;;;0.95;0.60;;;;;;;12.02;88.48;102372.13;5053461;28;20075;-89
2022/09/20 06:16:03;;;;;;;2.72;1.08;;;;;;;12.02;88.54;102364.25;5052983;28;20036;-89
2022/09/20 06:18:56;;;;;;;0.73;0.73;;;;;;;12.03;88.65;102372.09;5053592;28;20075;-89
2022/09/20 06:21:49;;;;;;;1.73;0.90;;;;;;;12.03;88.88;102368.63;5080143;28;20355;-89
2022/09/20 06:24:47;;;;;;;1.92;1.00;;;;;;;12.04;88.56;102376.47;5082017;28;20316;-89
2022/09/20 06:27:41;;;;;;;0.80;0.80;;;;;;;12.03;88.69;102369.47;5069768;28;20081;-89
2022/09/20 06:30:53;;;;;;;1.42;0.90;;;;;;;12.04;89.03;102376.47;5084643;28;20390;-89
2022/09/20 06:33:29;;;;;;;0.80;0.70;;;;;;;12.06;89.19;102372.03;5076225;28;20071;-89
2022/09/20 06:43:03;;;;;;;1.63;1.08;;;;;;;12.09;89.57;102382.44;5022025;28;20044;-89
2022/09/20 06:46:01;;;;;;;0.95;0.90;;;;;;;12.09;89.46;102381.59;5060292;28;20306;-89
2022/09/20 06:48:49;;;;;;;1.98;0.80;;;;;;;12.09;89.14;102379.81;5057236;28;20051;-89
2022/09/20 06:51:22;;;;;;;2.88;0.88;;;;;;;12.11;88.90;102382.41;5067545;28;20090;-89
2022/09/20 06:53:58;;;;;;;2.97;1.00;;;;;;;12.12;88.80;102381.53;5034787;28;20053;-89
2022/09/20 06:56:35;;;;;;;1.98;0.93;;;;;;;12.14;88.32;102387.63;5073284;28;20066;-90
2022/09/20 06:59:07;;;;;;;2.55;1.23;;;;;;;12.15;88.57;102386.72;5051589;28;20107;-89
2022/09/20 07:01:46;;;;;;;1.17;0.70;;;;;;;12.16;88.57;102392.84;5078123;28;20050;-89
2022/09/20 07:04:38;;;;;;;6.40;1.05;;;;;;;12.18;88.02;102388.41;5068608;28;20119;-89
2022/09/20 07:07:10;;;;;;;1.25;0.98;;;;;;;12.20;88.55;102394.50;5048563;28;20330;-89
2022/09/20 07:09:45;;;;;;;1.63;1.05;;;;;;;12.20;88.70;102394.50;5066460;28;21117;-89
2022/09/20 07:12:22;;;;;;;1.63;1.20;;;;;;;12.22;88.40;102395.31;5049854;28;20057;-89
2022/09/20 07:14:49;;;;;;;1.95;0.90;;;;;;;12.22;88.57;102388.28;5070450;28;20052;-89
2022/09/20 07:17:22;;;;;;;1.58;1.10;;;;;;;12.22;88.57;102384.81;5041889;28;20045;-89
2022/09/20 07:19:48;;;;;;;4.18;1.65;;;;;;;12.24;89.01;102386.53;5055025;28;20119;-89
2022/09/20 07:22:22;;;;;;;2.50;1.00;;;;;;;12.25;88.51;102387.38;5045229;28;20091;-89
2022/09/20 07:24:48;;;;;;;1.40;0.95;;;;;;;12.26;88.75;102399.59;5061692;28;20090;-89
2022/09/20 07:27:17;;;;;;;1.77;0.82;;;;;;;12.26;88.37;102394.34;5061625;28;20044;-89
2022/09/20 07:29:49;;;;;;;4.88;1.13;;;;;;;12.26;88.78;102392.59;5047267;28;20062;-89
2022/09/20 07:32:19;;;;;;;2.38;0.80;;;;;;;12.29;88.92;102402.16;5070383;28;20041;-89
2022/09/20 07:34:49;;;;;;;6.35;1.17;;;;;;;12.29;88.41;102394.28;5057487;28;20049;-89
2022/09/20 07:37:21;;;;;;;3.60;0.98;;;;;;;12.28;87.79;102392.56;5057752;28;20048;-89
2022/09/20 07:40:15;;;;;;;3.83;1.00;;;;;;;12.30;87.29;102403.91;5055586;28;20049;-89
2022/09/20 07:42:59;;;;;;;1.58;1.00;;;;;;;12.31;87.88;102400.34;5055283;28;20087;-89
2022/09/20 07:45:55;;;;;;;3.20;1.50;;;;;;;12.32;88.21;102409.97;5060765;28;20538;-89
2022/09/20 07:48:34;;;;;;;1.95;0.80;;;;;;;12.33;88.35;102413.47;5040755;28;20037;-89
2022/09/20 07:51:17;;;;;;;1.30;0.80;;;;;;;12.34;88.50;102413.44;5062853;28;20040;-89
2022/09/20 07:54:29;;;;;;;2.17;0.93;;;;;;;12.35;88.51;102415.16;5065117;28;20155;-89
2022/09/20 07:57:17;;;;;;;2.55;1.00;;;;;;;12.35;88.71;102419.53;5044322;28;20072;-89
2022/09/20 08:00:07;;;;;;;;;;;;;;;12.37;89.12;102421.25;5058314;28;20033;-89
2022/09/20 08:03:08;;;;;;;1.42;0.70;;;;;;;12.37;89.43;102428.25;5065691;28;19924;-89
2022/09/20 08:05:49;;;;;;;1.27;1.00;;;;;;;12.38;89.50;102428.22;5067316;28;20028;-89
2022/09/20 08:08:19;;;;;;;1.85;0.85;;;;;;;12.39;89.50;102432.59;5062982;28;20040;-89
2022/09/20 08:11:01;;;;;;;2.17;0.90;;;;;;;12.37;89.67;102437.00;5070405;28;20347;-89
2022/09/20 08:13:49;;;;;;;1.52;0.68;;;;;;;12.39;89.42;102436.97;5042411;28;20044;-89
2022/09/20 08:16:38;;;;;;;2.08;1.23;;;;;;;12.40;89.56;102442.19;5057693;28;20087;-89
2022/09/20 08:19:05;;;;;;;;;;;;;;;12.42;89.40;102444.78;5060429;28;20024;-89
2022/09/20 08:21:33;;;;;;;1.23;0.50;;;;;;;12.42;88.17;102434.25;5056446;28;21544;-89
2022/09/20 08:24:00;;;;;;;;;;;;;;;12.42;88.47;102439.50;5047846;28;20099;-89
2022/09/20 08:26:29;;;;;;;2.30;0.82;;;;;;;12.43;88.86;102443.88;5062859;28;19919;-89
2022/09/20 08:28:58;;;;;;;5.10;1.20;;;;;;;12.43;88.50;102442.13;5079082;28;20047;-89
2022/09/20 08:31:25;;;;;;;;;;;;;;;12.41;86.59;102449.16;5045538;28;20052;-89
2022/09/20 08:33:56;;;;;;;3.70;1.05;;;;;;;12.41;85.80;102443.06;5067928;28;20137;-89
2022/09/20 08:36:23;;;;;;;;;;;;;;;12.43;85.78;102443.88;5039073;28;20359;-89
2022/09/20 08:38:51;;;;;;;2.58;0.70;;;;;;;12.43;85.42;102451.78;5069498;28;19950;-89
2022/09/20 08:41:32;;;;;;;4.38;0.75;;;;;;;12.43;84.26;102450.00;5074464;28;20225;-89
2022/09/20 08:44:16;;;;;;;3.80;0.98;;;;;;;12.45;84.63;102456.06;5064585;28;20099;-89
2022/09/20 08:46:47;;;;;;;1.58;0.60;;;;;;;12.46;83.68;102455.19;5074748;28;20032;-89
2022/09/20 08:49:25;;;;;;;1.85;1.00;;;;;;;12.50;83.98;102458.63;5066489;28;20323;-89
2022/09/20 08:51:53;;;;;;;3.45;1.10;;;;;;;12.49;82.99;102457.72;5051560;28;20029;-89
2022/09/20 08:54:25;;;;;;;3.88;0.80;;;;;;;12.53;83.22;102461.16;5047776;28;20043;-89
2022/09/20 08:57:09;;;;;;;4.03;0.90;;;;;;;12.53;83.22;102462.91;5049712;28;20111;-89
2022/09/20 08:59:39;;;;;;;5.70;1.42;;;;;;;12.54;82.04;102462.91;5064601;28;20055;-89
2022/09/20 09:02:24;;;;;;;8.25;1.20;;;;;;;12.56;80.93;102466.34;5025100;28;20028;-89
2022/09/20 09:05:13;;;;;;;2.42;0.63;;;;;;;12.59;80.71;102473.31;5060413;28;20126;-89
2022/09/20 09:08:02;;;;;;;;;;;;;;;12.62;80.55;102467.97;5067913;28;20032;-89
2022/09/20 09:10:39;;;;;;;4.63;0.98;;;;;;;12.63;80.81;102467.94;5049548;28;20189;-89
2022/09/20 09:13:07;;;;;;;1.27;0.75;;;;;;;12.65;81.13;102470.53;5070728;28;20119;-89
2022/09/20 09:15:36;;;;;;;3.78;0.75;;;;;;;12.66;80.38;102464.34;5048282;28;20040;-89
2022/09/20 09:18:04;;;;;;;1.90;0.60;;;;;;;12.68;78.97;102470.47;5051469;28;20032;-89
2022/09/20 09:20:45;;;;;;;4.25;0.73;;;;;;;12.75;79.97;102472.06;5051273;28;20105;-89
2022/09/20 09:23:24;;;;;;;5.70;1.10;;;;;;;12.80;78.99;102477.19;5055695;28;20079;-89
2022/09/20 09:25:51;;;;;;;3.92;1.13;;;;;;;12.83;79.14;102485.88;5074222;28;20048;-89
2022/09/20 09:28:22;;;;;;;5.28;0.80;;;;;;;12.85;79.31;102480.56;5066857;28;20258;-89
2022/09/20 09:30:48;;;;;;;4.00;1.00;;;;;;;12.88;78.41;102483.13;5054962;28;20163;-89
2022/09/20 09:33:26;;;;;;;3.22;0.95;;;;;;;12.91;77.70;102471.66;5044313;28;20374;-89
2022/09/20 09:36:05;;;;;;;3.47;0.77;;;;;;;12.93;78.45;102480.38;5065002;28;20028;-89
2022/09/20 09:38:40;;;;;;;3.88;1.10;;;;;;;12.95;78.38;102478.56;5061108;28;20331;-89
2022/09/20 09:41:25;;;;;;;5.80;0.80;;;;;;;12.97;78.88;102479.41;5041524;28;20340;-89
2022/09/20 09:43:59;;;;;;;5.82;0.77;;;;;;;12.98;78.36;102479.38;5056137;28;20311;-89
2022/09/20 09:46:26;;;;;;;4.97;1.05;;;;;;;12.99;78.55;102473.22;5056814;28;20112;-89
2022/09/20 09:49:14;;;;;;;6.38;1.25;;;;;;;13.02;78.57;102482.78;5034060;28;20414;-90
2022/09/20 09:51:42;;;;;;;6.27;1.00;;;;;;;13.04;78.83;102478.34;5078052;28;20330;-89
2022/09/20 09:54:18;;;;;;;5.15;1.02;;;;;;;13.07;79.06;102480.91;5041005;28;20055;-89
2022/09/20 09:56:56;;;;;;;2.40;0.77;;;;;;;13.07;76.69;102481.75;5059769;28;20496;-89
2022/09/20 09:59:56;;;;;;;4.75;0.98;;;;;;;13.11;75.88;102473.81;5054433;28;20232;-89
2022/09/20 10:02:47;;;;;;;4.32;0.77;;;;;;;13.16;76.05;102480.69;5055512;28;20032;-89
2022/09/20 10:05:44;;;;;;;2.63;0.90;;;;;;;13.18;74.97;102478.88;5072794;28;20370;-89
2022/09/20 10:08:40;;;;;;;4.10;0.90;;;;;;;13.23;75.26;102478.75;5068775;28;20059;-89
2022/09/20 10:11:36;;;;;;;4.63;0.80;;;;;;;13.25;75.49;102475.19;5070746;28;20099;-89
2022/09/20 10:14:33;;;;;;;5.00;0.80;;;;;;;13.29;76.26;102467.22;5054081;28;20274;-89
2022/09/20 10:17:26;;;;;;;4.13;0.70;;;;;;;13.29;75.19;102473.31;5071009;28;20070;-89
2022/09/20 10:20:16;;;;;;;5.78;1.30;;;;;;;13.30;74.46;102471.56;5055496;28;20043;-89
2022/09/20 10:22:55;;;;;;;2.72;0.63;;;;;;;13.29;74.12;102462.81;5055790;28;20136;-89
2022/09/20 10:25:42;;;;;;;6.43;0.80;;;;;;;13.33;76.33;102466.25;5065840;28;20455;-89
2022/09/20 10:28:18;;;;;;;6.65;1.00;;;;;;;13.36;77.17;102468.81;5070271;28;20052;-89
2022/09/20 10:30:55;;;;;;;3.10;0.60;;;;;;;13.37;77.24;102468.78;5073340;28;20028;-89
2022/09/20 10:33:40;;;;;;;5.88;0.68;;;;;;;13.39;75.58;102479.25;5051959;28;20043;-89
2022/09/20 10:36:30;;;;;;;4.22;1.15;;;;;;;13.40;76.03;102483.59;5048945;28;20029;-89
2022/09/20 10:39:19;;;;;;;8.13;1.10;;;;;;;13.40;77.10;102486.25;5066408;28;20040;-89
2022/09/20 10:45:01;;;;;;;7.63;1.23;;;;;;;13.35;77.15;102489.00;5060407;28;20279;-89
2022/09/20 10:47:48;;;;;;;5.47;1.00;;;;;;;13.35;76.92;102496.91;5046425;28;20367;-89
2022/09/20 10:50:51;;;;;;;8.48;1.67;;;;;;;13.37;77.39;102497.72;5052109;28;20043;-89
2022/09/20 10:53:26;;;;;;;5.05;1.05;;;;;;;13.40;77.91;102497.63;5065105;28;20043;-89
2022/09/20 10:56:01;;;;;;;9.60;1.30;;;;;;;13.47;77.97;102500.09;5053911;28;20246;-89
2022/09/20 10:59:02;;;;;;;5.65;1.77;;;;;;;13.50;77.58;102492.13;5068516;28;20032;-89
2022/09/20 11:01:28;;;;;;;2.83;1.17;;;;;;;13.55;77.39;102492.84;5060561;28;20036;-89
2022/09/20 11:04:12;;;;;;;8.10;1.13;;;;;;;13.59;76.91;102494.53;5054492;28;20243;-89
2022/09/20 11:07:01;;;;;;;5.50;1.27;;;;;;;13.60;77.40;102494.47;5052569;28;20059;-89
2022/09/20 11:09:36;;;;;;;6.93;1.42;;;;;;;13.61;77.14;102500.59;5053547;28;20040;-89
2022/09/20 11:12:15;;;;;;;5.35;1.08;;;;;;;13.63;77.40;102494.38;5052007;28;20046;-89
2022/09/20 11:14:48;;;;;;;3.05;1.38;;;;;;;13.64;77.66;102497.88;5055361;28;20059;-89
2022/09/20 11:17:28;;;;;;;5.03;0.93;;;;;;;13.68;77.71;102496.91;5048929;28;20039;-89
2022/09/20 11:20:16;;;;;;;5.47;1.48;;;;;;;13.73;77.89;102502.03;5052112;28;20244;-89
2022/09/20 11:22:47;;;;;;;6.68;1.35;;;;;;;13.73;77.14;102500.25;5054787;28;20135;-89
2022/09/20 11:25:19;;;;;;;3.97;1.30;;;;;;;13.74;76.55;102502.00;5054480;28;20048;-89
2022/09/20 11:27:50;;;;;;;3.95;0.90;;;;;;;13.75;75.94;102500.22;5052417;28;20033;-89
2022/09/20 11:30:21;;;;;;;2.17;1.15;;;;;;;13.78;76.09;102500.13;5052844;28;20302;-90
2022/09/20 11:33:14;;;;;;;3.53;0.95;;;;;;;13.80;77.63;102496.53;5047268;28;20032;-89
2022/09/20 11:36:00;;;;;;;9.82;1.25;;;;;;;13.82;75.97;102492.13;5059113;28;20075;-89
2022/09/20 11:38:56;;;;;;;3.08;0.68;;;;;;;13.89;77.68;102497.22;5067689;28;20032;-89
2022/09/20 11:41:34;;;;;;;1.98;0.55;;;;;;;13.92;75.68;102492.72;5058542;28;20049;-89
2022/09/20 11:44:26;;;;;;;4.05;0.90;;;;;;;13.96;75.71;102493.50;5053809;28;20044;-89
2022/09/20 11:47:16;;;;;;;1.45;0.60;;;;;;;13.99;75.13;102498.69;5048507;28;20045;-89
2022/09/20 11:50:06;;;;;;;3.88;1.02;;;;;;;13.99;74.45;102494.28;5064024;28;20213;-89
2022/09/20 11:52:48;;;;;;;1.55;1.00;;;;;;;14.00;73.16;102500.41;5059833;28;20040;-89
2022/09/20 11:55:39;;;;;;;1.38;0.80;;;;;;;14.01;73.30;102497.72;5057975;28;20211;-89
2022/09/20 11:58:15;;;;;;;;;;;;;;;14.02;72.45;102501.22;5042048;28;20341;-89
2022/09/20 12:00:53;;;;;;;1.58;0.73;;;;;;;14.04;73.36;102496.75;5058565;28;19920;-89
2022/09/20 12:03:51;;;;;;;5.28;0.77;;;;;;;14.04;72.74;102499.38;5062222;28;20041;-89
2022/09/20 12:06:32;;;;;;;2.25;0.80;;;;;;;14.07;73.17;102498.47;5070903;28;20037;-89
2022/09/20 12:09:05;;;;;;;6.00;1.02;;;;;;;14.07;73.44;102504.59;5058036;28;20035;-89
2022/09/20 12:11:37;;;;;;;4.57;0.90;;;;;;;14.08;72.71;102505.44;5064138;28;20112;-89
2022/09/20 12:14:32;;;;;;;3.85;1.67;;;;;;;14.08;72.88;102502.81;5071297;28;20040;-88
2022/09/20 12:17:44;;;;;;;3.20;0.57;;;;;;;14.08;72.82;102502.81;5056848;28;20333;-89
2022/09/20 12:20:41;;;;;;;3.97;0.90;;;;;;;14.08;72.72;102508.06;5061671;28;20049;-89
2022/09/20 12:23:57;;;;;;;4.72;0.85;;;;;;;14.06;72.40;102505.50;5072070;28;20078;-89
2022/09/20 12:26:45;;;;;;;2.22;0.60;;;;;;;14.06;72.03;102504.63;5052503;28;20041;-89
2022/09/20 12:29:32;;;;;;;7.47;1.20;;;;;;;14.06;71.70;102512.53;5065886;28;20112;-89
2022/09/20 12:32:23;;;;;;;3.13;1.08;;;;;;;14.07;72.00;102519.53;5064957;28;20055;-89
2022/09/20 12:34:56;;;;;;;4.50;1.20;;;;;;;14.07;71.98;102511.63;5068682;28;20072;-89
2022/09/20 12:37:48;;;;;;;5.15;1.05;;;;;;;14.08;72.39;102508.06;5065568;28;20102;-89
2022/09/20 12:40:36;;;;;;;5.03;1.00;;;;;;;14.13;72.82;102514.06;5071712;28;20360;-89
2022/09/20 12:43:30;;;;;;;2.05;0.80;;;;;;;14.17;73.10;102499.91;5065300;28;20024;-89
2022/09/20 12:46:05;;;;;;;3.67;0.90;;;;;;;14.18;72.68;102505.13;5042484;28;20315;-89
2022/09/20 12:55:45;;;;;;;3.42;0.90;;;;;;;14.20;72.47;102505.09;5062637;28;20047;-89
2022/09/20 12:58:23;;;;;;;3.30;0.88;;;;;;;14.19;71.57;102506.88;5059672;28;20193;-89